createdAt,value
2019-03-22T00:01:35.216Z,36.40
2019-03-22T00:04:01.247Z,29.47
2019-03-22T00:06:27.200Z,34.17
2019-03-22T00:08:53.184Z,33.27
2019-03-22T00:11:19.197Z,33.77
2019-03-22T00:13:46.019Z,31.33
2019-03-22T00:16:12.078Z,28.90
2019-03-22T00:18:38.039Z,32.27
2019-03-22T00:21:04.773Z,28.40
2019-03-22T00:23:31.483Z,35.63
2019-03-22T00:25:57.494Z,33.77
2019-03-22T00:28:23.459Z,34.00
2019-03-22T00:30:49.460Z,33.50
2019-03-22T00:33:15.449Z,31.83
2019-03-22T00:35:41.456Z,32.87
2019-03-22T00:38:07.436Z,34.53
2019-03-22T00:40:34.197Z,32.57
2019-03-22T00:43:00.907Z,37.47
2019-03-22T00:45:26.905Z,33.03
2019-03-22T00:47:52.892Z,32.53
2019-03-22T00:50:18.886Z,35.63
2019-03-22T00:52:45.612Z,38.27
2019-03-22T00:55:11.592Z,40.50
2019-03-22T00:57:37.551Z,38.80
2019-03-22T01:00:03.552Z,35.87
2019-03-22T01:02:29.535Z,35.53
2019-03-22T01:04:56.272Z,44.03
2019-03-22T01:07:22.259Z,42.93
2019-03-22T01:09:48.241Z,35.30
2019-03-22T01:12:14.197Z,33.87
2019-03-22T01:14:40.207Z,31.70
2019-03-22T01:17:06.192Z,34.83
2019-03-22T01:19:32.201Z,29.73
2019-03-22T01:21:58.162Z,31.27
2019-03-22T01:24:24.153Z,38.80
2019-03-22T01:26:50.902Z,36.57
2019-03-22T01:29:17.652Z,34.87
2019-03-22T01:31:43.687Z,37.07
2019-03-22T01:34:09.636Z,40.50
2019-03-22T01:36:35.635Z,41.50
2019-03-22T01:39:01.610Z,38.27
2019-03-22T01:41:27.612Z,33.77
2019-03-22T01:43:53.596Z,30.07
2019-03-22T01:46:19.616Z,36.63
2019-03-22T01:48:45.593Z,34.60
2019-03-22T01:51:11.614Z,32.00
2019-03-22T01:53:37.568Z,38.90
2019-03-22T01:56:04.310Z,34.87
2019-03-22T01:58:31.012Z,36.57
2019-03-22T02:00:57.017Z,40.03
2019-03-22T02:03:22.998Z,33.17
2019-03-22T02:05:49.025Z,35.80
2019-03-22T02:08:15.747Z,36.07
2019-03-22T02:10:42.492Z,31.67
2019-03-22T02:13:08.545Z,42.63
2019-03-22T02:15:34.537Z,35.60
2019-03-22T02:18:00.528Z,37.43
2019-03-22T02:20:26.518Z,39.77
2019-03-22T02:22:52.507Z,38.30
2019-03-22T02:25:19.223Z,38.50
2019-03-22T02:27:45.200Z,33.83
2019-03-22T02:30:11.207Z,33.97
2019-03-22T02:32:37.904Z,33.73
2019-03-22T02:35:04.055Z,40.13
2019-03-22T02:37:30.210Z,41.13
2019-03-22T02:39:56.919Z,39.80
2019-03-22T02:42:22.917Z,42.30
2019-03-22T02:44:48.886Z,40.93
2019-03-22T02:47:15.619Z,45.43
2019-03-22T02:49:42.332Z,46.00
2019-03-22T02:52:08.324Z,40.33
2019-03-22T02:54:34.322Z,47.30
2019-03-22T02:57:00.301Z,42.27
2019-03-22T02:59:26.252Z,44.63
2019-03-22T03:01:52.977Z,45.17
2019-03-22T03:04:18.932Z,43.77
2019-03-22T03:06:44.936Z,49.30
2019-03-22T03:09:11.655Z,46.80
2019-03-22T03:11:37.904Z,45.60
2019-03-22T03:14:04.021Z,43.87
2019-03-22T03:16:30.090Z,44.23
2019-03-22T03:18:56.093Z,49.93
2019-03-22T03:21:22.113Z,46.97
2019-03-22T03:23:48.083Z,52.23
2019-03-22T03:26:14.086Z,45.70
2019-03-22T03:28:40.057Z,46.70
2019-03-22T03:31:06.050Z,54.60
2019-03-22T03:33:32.038Z,51.17
2019-03-22T03:35:58.081Z,47.40
2019-03-22T03:38:24.036Z,51.30
2019-03-22T03:40:50.032Z,51.07
2019-03-22T03:43:16.019Z,57.77
2019-03-22T03:45:42.032Z,52.60
2019-03-22T03:48:08.773Z,49.17
2019-03-22T03:50:35.525Z,52.47
2019-03-22T03:53:01.530Z,59.53
2019-03-22T03:55:27.494Z,50.43
2019-03-22T03:57:53.472Z,53.23
2019-03-22T04:00:20.191Z,57.13
2019-03-22T04:02:46.227Z,47.93
2019-03-22T04:05:14.761Z,50.00
2019-03-22T04:07:39.074Z,54.90
2019-03-22T04:10:05.039Z,55.23
2019-03-22T04:12:31.835Z,69.90
2019-03-22T04:14:57.798Z,62.60
2019-03-22T04:17:23.792Z,51.60
2019-03-22T04:19:49.774Z,53.90
2019-03-22T04:22:15.761Z,49.67
2019-03-22T04:24:42.487Z,55.73
2019-03-22T04:27:08.477Z,51.77
2019-03-22T04:29:34.446Z,49.30
2019-03-22T04:32:00.450Z,50.57
2019-03-22T04:34:26.435Z,53.93
2019-03-22T04:36:52.408Z,46.93
2019-03-22T04:39:18.387Z,47.87
2019-03-22T04:41:44.360Z,46.67
2019-03-22T04:44:10.312Z,54.47
2019-03-22T04:46:37.034Z,56.67
2019-03-22T04:49:03.742Z,47.43
2019-03-22T04:51:29.754Z,52.20
2019-03-22T04:53:55.738Z,55.80
2019-03-22T04:56:21.744Z,52.83
2019-03-22T04:58:48.474Z,51.00
2019-03-22T05:01:14.459Z,52.43
2019-03-22T05:03:40.420Z,51.10
2019-03-22T05:06:06.404Z,46.37
2019-03-22T05:08:32.381Z,58.10
2019-03-22T05:10:59.073Z,57.07
2019-03-22T05:13:25.074Z,50.83
2019-03-22T05:15:51.032Z,62.87
2019-03-22T05:18:17.029Z,54.87
2019-03-22T05:20:43.006Z,59.23
2019-03-22T05:23:09.760Z,60.80
2019-03-22T05:25:35.739Z,48.03
2019-03-22T05:28:01.725Z,62.33
2019-03-22T05:30:27.706Z,47.73
2019-03-22T05:32:53.752Z,61.17
2019-03-22T05:35:20.479Z,51.73
2019-03-22T05:37:47.222Z,52.07
2019-03-22T05:40:13.959Z,53.07
2019-03-22T05:42:40.710Z,53.80
2019-03-22T05:45:07.428Z,50.10
2019-03-22T05:47:34.197Z,50.63
2019-03-22T05:50:00.907Z,49.77
2019-03-22T05:52:26.893Z,56.03
2019-03-22T05:54:52.857Z,53.70
2019-03-22T05:57:18.843Z,55.77
2019-03-22T05:59:44.815Z,53.33
2019-03-22T06:02:11.635Z,54.10
2019-03-22T06:04:37.665Z,58.93
2019-03-22T06:07:03.698Z,52.13
2019-03-22T06:09:29.738Z,59.40
2019-03-22T06:11:56.466Z,61.23
2019-03-22T06:14:23.205Z,57.43
2019-03-22T06:16:49.919Z,63.83
2019-03-22T06:19:15.930Z,56.17
2019-03-22T06:21:41.894Z,59.97
2019-03-22T06:24:08.627Z,61.07
2019-03-22T06:26:35.337Z,58.17
2019-03-22T06:29:01.338Z,63.90
2019-03-22T06:31:27.281Z,60.67
2019-03-22T06:33:53.293Z,56.33
2019-03-22T06:36:19.255Z,54.03
2019-03-22T06:38:45.977Z,60.73
2019-03-22T06:41:11.962Z,61.93
2019-03-22T06:43:37.958Z,69.83
2019-03-22T06:46:03.915Z,61.30
2019-03-22T06:48:29.913Z,67.30
2019-03-22T06:50:56.620Z,72.63
2019-03-22T06:53:22.626Z,65.37
2019-03-22T06:55:48.624Z,63.30
2019-03-22T06:58:14.612Z,57.87
2019-03-22T07:00:41.326Z,63.50
2019-03-22T07:03:07.308Z,52.53
2019-03-22T07:05:33.301Z,60.70
2019-03-22T07:07:59.313Z,68.10
2019-03-22T07:10:26.013Z,69.70
2019-03-22T07:12:51.978Z,67.27
2019-03-22T07:15:18.716Z,56.33
2019-03-22T07:17:45.438Z,63.33
2019-03-22T07:20:11.425Z,60.63
2019-03-22T07:22:37.449Z,57.17
2019-03-22T07:25:03.446Z,64.93
2019-03-22T07:27:29.447Z,70.10
2019-03-22T07:29:55.429Z,61.13
2019-03-22T07:32:21.379Z,72.70
2019-03-22T07:34:47.354Z,66.47
2019-03-22T07:37:13.319Z,62.70
2019-03-22T07:39:39.327Z,65.90
2019-03-22T07:42:05.945Z,62.63
2019-03-22T07:44:31.926Z,63.80
2019-03-22T07:46:58.640Z,69.00
2019-03-22T07:49:24.615Z,65.33
2019-03-22T07:51:50.566Z,64.53
2019-03-22T07:54:16.553Z,63.57
2019-03-22T07:56:43.232Z,56.90
2019-03-22T07:59:09.992Z,69.13
2019-03-22T08:01:36.019Z,62.47
2019-03-22T08:04:02.001Z,63.10
2019-03-22T08:06:27.967Z,63.53
2019-03-22T08:08:53.967Z,65.97
2019-03-22T08:11:19.932Z,65.53
2019-03-22T08:13:46.698Z,55.30
2019-03-22T08:16:12.663Z,59.83
2019-03-22T08:18:38.658Z,62.00
2019-03-22T08:21:04.634Z,64.77
2019-03-22T08:23:30.634Z,55.43
2019-03-22T08:25:56.625Z,64.77
2019-03-22T08:28:22.622Z,63.73
2019-03-22T08:30:49.351Z,63.47
2019-03-22T08:33:16.058Z,58.03
2019-03-22T08:35:42.056Z,54.23
2019-03-22T08:38:08.013Z,60.00
2019-03-22T08:40:34.765Z,51.60
2019-03-22T08:43:00.740Z,59.80
2019-03-22T08:45:26.725Z,61.83
2019-03-22T08:47:53.458Z,60.43
2019-03-22T08:50:19.465Z,55.50
2019-03-22T08:52:45.466Z,54.63
2019-03-22T08:55:11.438Z,50.07
2019-03-22T08:57:38.171Z,50.00
2019-03-22T09:00:04.148Z,55.33
2019-03-22T09:02:30.138Z,52.57
2019-03-22T09:04:56.226Z,55.80
2019-03-22T09:07:24.323Z,58.30
2019-03-22T09:09:48.213Z,57.33
2019-03-22T09:12:14.243Z,49.57
2019-03-22T09:14:40.234Z,56.27
2019-03-22T09:17:06.177Z,51.30
2019-03-22T09:19:32.891Z,56.87
2019-03-22T09:21:59.835Z,57.90
2019-03-22T09:24:38.264Z,49.03
2019-03-22T09:26:52.422Z,56.73
2019-03-22T09:29:19.113Z,52.33
2019-03-22T09:31:45.126Z,50.27
2019-03-22T09:34:11.086Z,50.33
2019-03-22T09:36:37.872Z,48.13
2019-03-22T09:39:03.832Z,47.13
2019-03-22T09:41:29.882Z,45.40
2019-03-22T09:43:55.874Z,46.07
2019-03-22T09:46:21.933Z,46.10
2019-03-22T09:48:48.622Z,52.23
2019-03-22T09:51:14.641Z,47.67
2019-03-22T09:53:40.601Z,49.27
2019-03-22T09:56:06.640Z,48.50
2019-03-22T09:58:32.597Z,44.10
2019-03-22T10:00:58.565Z,46.50
2019-03-22T10:03:24.571Z,45.33
2019-03-22T10:05:50.564Z,51.50
2019-03-22T10:08:16.559Z,48.90
2019-03-22T10:10:42.568Z,52.50
2019-03-22T10:13:09.315Z,52.13
2019-03-22T10:15:36.111Z,50.37
2019-03-22T10:18:02.102Z,50.17
2019-03-22T10:20:28.124Z,50.47
2019-03-22T10:22:54.113Z,46.23
2019-03-22T10:25:21.100Z,45.40
2019-03-22T10:27:47.146Z,48.60
2019-03-22T10:30:13.116Z,43.43
2019-03-22T10:32:39.096Z,49.23
2019-03-22T10:35:05.853Z,48.90
2019-03-22T10:37:31.885Z,49.33
2019-03-22T10:39:57.855Z,48.30
2019-03-22T10:42:23.907Z,47.30
2019-03-22T10:44:49.859Z,45.10
2019-03-22T10:47:18.061Z,43.17
2019-03-22T10:49:42.678Z,42.97
2019-03-22T10:52:08.691Z,42.63
2019-03-22T10:54:34.702Z,46.87
2019-03-22T10:57:00.632Z,43.87
2019-03-22T10:59:26.672Z,43.37
2019-03-22T11:02:03.282Z,45.17
2019-03-22T11:04:18.673Z,42.07
2019-03-22T11:06:44.619Z,44.97
2019-03-22T11:09:10.601Z,49.67
2019-03-22T11:11:36.568Z,44.33
2019-03-22T11:14:03.276Z,44.20
2019-03-22T11:16:29.223Z,47.20
2019-03-22T11:18:55.959Z,42.90
2019-03-22T11:21:22.655Z,41.33
2019-03-22T11:23:48.629Z,41.60
2019-03-22T11:26:15.339Z,42.73
2019-03-22T11:28:41.323Z,42.30
2019-03-22T11:31:07.286Z,46.20
2019-03-22T11:33:34.031Z,39.70
2019-03-22T11:35:59.989Z,46.67
2019-03-22T11:38:25.981Z,43.17
2019-03-22T11:40:52.699Z,41.33
2019-03-22T11:43:18.692Z,37.43
2019-03-22T11:45:44.690Z,38.67
2019-03-22T11:48:10.710Z,40.83
2019-03-22T11:50:36.676Z,39.77
2019-03-22T11:53:02.630Z,40.10
2019-03-22T11:55:28.603Z,39.77
2019-03-22T11:57:54.574Z,41.63
2019-03-22T12:00:20.539Z,36.63
2019-03-22T12:02:46.503Z,33.40
2019-03-22T12:05:12.493Z,36.97
2019-03-22T12:07:38.471Z,33.07
2019-03-22T12:10:04.457Z,34.37
2019-03-22T12:12:30.412Z,35.77
2019-03-22T12:14:56.375Z,34.27
2019-03-22T12:17:22.367Z,33.00
2019-03-22T12:19:49.083Z,33.23
2019-03-22T12:22:15.052Z,27.13
2019-03-22T12:24:41.100Z,29.97
2019-03-22T12:27:07.069Z,28.77
2019-03-22T12:29:34.327Z,31.93
2019-03-22T12:31:59.101Z,31.47
2019-03-22T12:34:25.104Z,36.77
2019-03-22T12:36:51.047Z,28.37
2019-03-22T12:39:17.024Z,28.30
2019-03-22T12:41:42.996Z,32.40
2019-03-22T12:44:08.937Z,28.00
2019-03-22T12:46:34.978Z,27.50
2019-03-22T12:49:00.950Z,26.83
2019-03-22T12:51:26.958Z,21.23
2019-03-22T12:53:52.914Z,24.33
2019-03-22T12:56:18.894Z,23.67
2019-03-22T12:58:44.865Z,25.87
2019-03-22T13:01:10.849Z,23.93
2019-03-22T13:03:36.821Z,21.70
2019-03-22T13:06:03.590Z,22.43
2019-03-22T13:08:29.555Z,20.40
2019-03-22T13:10:55.571Z,23.97
2019-03-22T13:13:21.544Z,21.87
2019-03-22T13:15:48.270Z,17.73
2019-03-22T13:18:14.983Z,16.77
2019-03-22T13:20:40.971Z,21.07
2019-03-22T13:23:07.756Z,23.53
2019-03-22T13:25:34.511Z,21.77
2019-03-22T13:28:00.486Z,21.67
2019-03-22T13:30:26.476Z,22.07
2019-03-22T13:32:53.167Z,19.27
2019-03-22T13:35:19.199Z,17.17
2019-03-22T13:37:45.171Z,16.83
2019-03-22T13:40:11.189Z,15.00
2019-03-22T13:42:37.160Z,17.17
2019-03-22T13:45:03.162Z,16.70
2019-03-22T13:47:29.156Z,14.57
2019-03-22T13:49:55.123Z,16.03
2019-03-22T13:52:21.132Z,15.90
2019-03-22T13:54:47.106Z,14.17
2019-03-22T13:57:13.874Z,14.50
2019-03-22T13:59:39.872Z,16.93
2019-03-22T14:02:05.851Z,15.43
2019-03-22T14:04:31.831Z,12.30
2019-03-22T14:06:57.832Z,14.83
2019-03-22T14:09:23.815Z,16.13
2019-03-22T14:11:49.804Z,13.77
2019-03-22T14:14:15.816Z,16.23
2019-03-22T14:16:42.541Z,10.47
2019-03-22T14:19:08.539Z,14.20
2019-03-22T14:21:34.535Z,12.10
2019-03-22T14:24:00.554Z,13.10
2019-03-22T14:26:26.541Z,11.20
2019-03-22T14:28:53.273Z,10.33
2019-03-22T14:31:19.279Z,9.87
2019-03-22T14:33:45.276Z,10.63
2019-03-22T14:36:11.260Z,11.93
2019-03-22T14:38:37.956Z,11.67
2019-03-22T14:41:03.939Z,11.13
2019-03-22T14:43:29.913Z,10.10
2019-03-22T14:45:55.936Z,10.30
2019-03-22T14:48:21.909Z,11.53
2019-03-22T14:50:47.901Z,10.83
2019-03-22T14:53:14.678Z,10.03
2019-03-22T14:55:40.707Z,10.73
2019-03-22T14:58:06.688Z,10.20
2019-03-22T15:00:32.717Z,10.93
2019-03-22T15:02:59.452Z,12.73
2019-03-22T15:05:26.185Z,9.67
2019-03-22T15:07:53.079Z,11.13
2019-03-22T15:10:19.873Z,11.57
2019-03-22T15:12:45.917Z,10.60
2019-03-22T15:15:11.915Z,12.83
2019-03-22T15:17:37.915Z,12.87
2019-03-22T15:20:03.875Z,13.73
2019-03-22T15:22:29.874Z,9.43
2019-03-22T15:24:55.865Z,14.23
2019-03-22T15:27:21.895Z,11.93
2019-03-22T15:29:47.861Z,13.40
2019-03-22T15:32:13.834Z,13.70
2019-03-22T15:34:39.792Z,11.43
2019-03-22T15:37:05.893Z,14.67
2019-03-22T15:41:57.857Z,10.97
2019-03-22T15:46:49.940Z,15.00
2019-03-22T15:49:16.171Z,15.43
2019-03-22T15:51:42.938Z,13.37
2019-03-22T15:54:08.944Z,12.43
2019-03-22T15:56:34.975Z,14.63
2019-03-22T15:59:01.104Z,11.93
2019-03-22T16:01:27.138Z,11.03
2019-03-22T16:03:53.196Z,11.57
2019-03-22T16:06:19.177Z,11.97
2019-03-22T16:08:45.203Z,11.23
2019-03-22T16:11:11.172Z,11.97
2019-03-22T16:13:37.153Z,9.67
2019-03-22T16:16:03.131Z,10.73
2019-03-22T16:18:29.133Z,10.00
2019-03-22T16:20:59.962Z,11.63
2019-03-22T16:23:21.152Z,11.80
2019-03-22T16:25:53.996Z,13.97
2019-03-22T16:28:19.982Z,13.27
2019-03-22T16:30:45.942Z,13.20
2019-03-22T16:33:11.945Z,11.50
2019-03-22T16:35:37.910Z,9.23
2019-03-22T16:38:03.931Z,10.03
2019-03-22T16:40:29.905Z,11.07
2019-03-22T16:42:55.866Z,11.67
2019-03-22T16:45:22.602Z,12.03
2019-03-22T16:47:49.310Z,11.00
2019-03-22T16:50:15.302Z,13.10
2019-03-22T16:52:41.320Z,12.23
2019-03-22T16:55:07.364Z,12.87
2019-03-22T16:57:33.336Z,14.80
2019-03-22T16:59:59.331Z,11.73
2019-03-22T17:02:25.302Z,12.30
2019-03-22T17:04:51.296Z,10.47
2019-03-22T17:07:17.265Z,13.07
2019-03-22T17:09:43.251Z,13.67
2019-03-22T17:12:09.939Z,11.03
2019-03-22T17:14:35.933Z,11.93
2019-03-22T17:17:01.897Z,11.67
2019-03-22T17:19:27.891Z,12.33
2019-03-22T17:21:53.860Z,10.97
2019-03-22T17:24:19.881Z,14.90
2019-03-22T17:26:45.862Z,15.27
2019-03-22T17:29:11.839Z,13.17
2019-03-22T17:31:37.814Z,12.43
2019-03-22T17:34:03.787Z,10.23
2019-03-22T17:36:30.546Z,14.97
2019-03-22T17:38:56.519Z,11.30
2019-03-22T17:41:22.497Z,12.37
2019-03-22T17:43:48.471Z,12.97
2019-03-22T17:46:14.457Z,16.93
2019-03-22T17:48:40.440Z,13.97
2019-03-22T17:51:06.432Z,11.23
2019-03-22T17:53:32.389Z,12.53
2019-03-22T17:55:59.162Z,14.47
2019-03-22T17:58:25.125Z,12.27
2019-03-22T18:00:51.116Z,13.30
2019-03-22T18:03:17.229Z,11.03
2019-03-22T18:05:44.249Z,12.57
2019-03-22T18:08:10.251Z,13.67
2019-03-22T18:10:36.299Z,13.90
2019-03-22T18:13:03.023Z,11.13
2019-03-22T18:15:29.030Z,14.17
2019-03-22T18:17:55.752Z,12.03
2019-03-22T18:20:21.770Z,14.93
2019-03-22T18:22:47.769Z,15.33
2019-03-22T18:25:15.702Z,12.93
2019-03-22T18:27:39.797Z,15.00
2019-03-22T18:30:05.778Z,12.30
2019-03-22T18:32:31.762Z,15.63
2019-03-22T18:34:57.763Z,12.67
2019-03-22T18:37:24.483Z,14.47
2019-03-22T18:39:50.446Z,16.70
2019-03-22T18:42:16.524Z,14.90
2019-03-22T18:44:42.494Z,14.17
2019-03-22T18:47:09.223Z,13.83
2019-03-22T18:49:35.940Z,14.30
2019-03-22T18:52:01.941Z,13.67
2019-03-22T18:54:27.934Z,18.77
2019-03-22T18:56:53.951Z,14.00
2019-03-22T18:59:19.920Z,14.07
2019-03-22T19:01:45.926Z,13.83
2019-03-22T19:04:11.902Z,13.83
2019-03-22T19:06:38.638Z,12.83
2019-03-22T19:09:05.356Z,16.83
2019-03-22T19:11:31.326Z,17.33
2019-03-22T19:13:57.315Z,14.67
2019-03-22T19:16:23.277Z,16.33
2019-03-22T19:18:49.290Z,13.77
2019-03-22T19:21:15.258Z,14.97
2019-03-22T19:23:42.016Z,14.53
2019-03-22T19:26:07.995Z,14.43
2019-03-22T19:28:33.975Z,16.10
2019-03-22T19:30:59.942Z,16.87
2019-03-22T19:33:25.948Z,12.73
2019-03-22T19:35:51.940Z,15.83
2019-03-22T19:38:18.688Z,13.33
2019-03-22T19:40:45.387Z,17.47
2019-03-22T19:43:11.378Z,16.60
2019-03-22T19:45:37.371Z,15.67
2019-03-22T19:48:04.120Z,14.77
2019-03-22T19:50:30.853Z,13.83
2019-03-22T19:52:57.611Z,18.13
2019-03-22T19:55:23.596Z,15.60
2019-03-22T19:57:49.608Z,14.03
2019-03-22T20:00:15.567Z,14.83
2019-03-22T20:02:42.265Z,14.83
2019-03-22T20:05:08.247Z,15.70
2019-03-22T20:07:34.235Z,16.90
2019-03-22T20:10:00.313Z,19.43
2019-03-22T20:12:26.984Z,16.73
2019-03-22T20:14:52.988Z,14.97
2019-03-22T20:17:18.943Z,16.20
2019-03-22T20:19:44.926Z,18.10
2019-03-22T20:22:10.876Z,16.03
2019-03-22T20:24:36.860Z,14.67
2019-03-22T20:27:02.848Z,15.13
2019-03-22T20:29:29.562Z,18.33
2019-03-22T20:31:55.522Z,15.77
2019-03-22T20:34:21.536Z,19.03
2019-03-22T20:36:48.235Z,18.30
2019-03-22T20:39:14.243Z,18.10
2019-03-22T20:41:40.217Z,17.13
2019-03-22T20:44:06.200Z,15.23
2019-03-22T20:46:32.155Z,17.87
2019-03-22T20:48:58.160Z,19.47
2019-03-22T20:51:24.100Z,20.00
2019-03-22T20:53:50.080Z,20.37
2019-03-22T20:56:16.085Z,18.77
2019-03-22T20:58:42.085Z,22.07
2019-03-22T21:01:08.790Z,26.30
2019-03-22T21:03:34.757Z,18.37
2019-03-22T21:06:00.776Z,16.47
2019-03-22T21:08:27.501Z,18.43
2019-03-22T21:10:53.590Z,20.37
2019-03-22T21:13:19.621Z,18.77
2019-03-22T21:15:46.434Z,20.97
2019-03-22T21:18:12.411Z,20.53
2019-03-22T21:20:39.164Z,20.70
2019-03-22T21:23:05.863Z,21.87
2019-03-22T21:25:31.924Z,25.60
2019-03-22T21:27:58.659Z,25.27
2019-03-22T21:30:24.655Z,26.00
2019-03-22T21:32:50.621Z,27.77
2019-03-22T21:35:22.398Z,33.13
2019-03-22T21:37:43.408Z,30.07
2019-03-22T21:40:09.454Z,30.30
2019-03-22T21:42:35.445Z,32.83
2019-03-22T21:45:01.448Z,28.53
2019-03-22T21:47:28.154Z,36.43
2019-03-22T21:49:54.160Z,28.30
2019-03-22T21:52:20.149Z,35.13
2019-03-22T21:54:46.185Z,51.97
2019-03-22T21:57:12.168Z,49.90
2019-03-22T21:59:38.147Z,64.47
2019-03-22T22:02:04.169Z,64.80
2019-03-22T22:04:30.197Z,60.70
2019-03-22T22:06:56.217Z,62.67
2019-03-22T22:09:22.222Z,58.80
2019-03-22T22:11:48.220Z,58.60
2019-03-22T22:14:14.936Z,50.47
2019-03-22T22:16:40.942Z,40.70
2019-03-22T22:19:06.925Z,31.20
2019-03-22T22:21:32.941Z,32.03
2019-03-22T22:23:58.923Z,31.27
2019-03-22T22:26:25.061Z,29.77
2019-03-22T22:28:51.819Z,31.67
2019-03-22T22:31:18.555Z,31.87
2019-03-22T22:33:45.294Z,35.43
2019-03-22T22:36:11.277Z,33.53
2019-03-22T22:38:37.256Z,37.10
2019-03-22T22:41:03.990Z,37.43
2019-03-22T22:43:32.810Z,43.37
2019-03-22T22:45:56.762Z,42.93
2019-03-22T22:48:22.728Z,38.80
2019-03-22T22:50:48.729Z,38.40
2019-03-22T22:53:15.501Z,46.17
2019-03-22T22:55:41.472Z,44.47
2019-03-22T22:58:07.488Z,46.10
2019-03-22T23:00:33.482Z,43.67
2019-03-22T23:03:00.264Z,44.57
2019-03-22T23:05:26.228Z,56.17
2019-03-22T23:07:52.246Z,52.50
2019-03-22T23:10:18.223Z,52.57
2019-03-22T23:12:44.955Z,55.03
2019-03-22T23:15:11.674Z,63.03
2019-03-22T23:17:37.694Z,62.90
2019-03-22T23:20:03.692Z,54.67
2019-03-22T23:22:29.695Z,60.60
2019-03-22T23:24:55.682Z,65.23
2019-03-22T23:27:21.670Z,72.50
2019-03-22T23:29:48.432Z,59.13
2019-03-22T23:32:14.409Z,76.00
2019-03-22T23:34:40.390Z,65.70
2019-03-22T23:37:07.264Z,57.40
2019-03-22T23:39:32.416Z,61.67
2019-03-22T23:41:58.418Z,63.20
2019-03-22T23:44:24.395Z,52.03
2019-03-22T23:46:51.100Z,66.87
2019-03-22T23:49:17.087Z,59.77
2019-03-22T23:51:43.071Z,67.63
2019-03-22T23:54:09.823Z,72.67
2019-03-22T23:56:35.811Z,65.93
2019-03-22T23:59:01.793Z,60.30
